createdAt,value
2023-04-17T00:01:25.665Z,21.70
2023-04-17T00:03:53.152Z,23.58
2023-04-17T00:06:20.005Z,24.60
2023-04-17T00:08:46.944Z,21.13
2023-04-17T00:11:13.619Z,25.92
2023-04-17T00:13:40.364Z,24.65
2023-04-17T00:16:08.421Z,25.98
2023-04-17T00:18:35.184Z,25.95
2023-04-17T00:21:01.908Z,26.73
2023-04-17T00:23:28.671Z,25.25
2023-04-17T00:25:55.359Z,25.38
2023-04-17T00:28:22.054Z,22.77
2023-04-17T00:30:48.701Z,24.77
2023-04-17T00:33:15.736Z,22.70
2023-04-17T00:35:42.399Z,21.77
2023-04-17T00:38:09.437Z,21.90
2023-04-17T00:40:36.411Z,21.88
2023-04-17T00:43:04.008Z,22.52
2023-04-17T00:45:31.248Z,23.48
2023-04-17T00:48:00.418Z,24.92
2023-04-17T00:50:28.133Z,25.30
2023-04-17T00:52:55.289Z,24.98
2023-04-17T00:55:22.164Z,25.20
2023-04-17T00:57:52.141Z,25.83
2023-04-17T01:00:18.838Z,26.13
2023-04-17T01:02:46.641Z,26.67
2023-04-17T01:05:13.742Z,26.10
2023-04-17T01:07:41.423Z,25.85
2023-04-17T01:10:08.999Z,23.58
2023-04-17T01:12:36.702Z,26.80
2023-04-17T01:15:03.521Z,26.02
2023-04-17T01:17:30.178Z,27.40
2023-04-17T01:19:57.514Z,27.15
2023-04-17T01:22:24.171Z,26.80
2023-04-17T01:24:51.139Z,27.70
2023-04-17T01:27:17.802Z,24.65
2023-04-17T01:29:45.077Z,25.17
2023-04-17T01:32:11.780Z,26.83
2023-04-17T01:34:38.437Z,26.42
2023-04-17T01:37:05.212Z,25.13
2023-04-17T01:39:31.915Z,25.33
2023-04-17T01:41:58.684Z,24.20
2023-04-17T01:44:25.574Z,23.95
2023-04-17T01:46:52.301Z,27.02
2023-04-17T01:49:19.841Z,24.25
2023-04-17T01:51:46.497Z,25.73
2023-04-17T01:54:15.565Z,25.73
2023-04-17T01:56:42.559Z,24.98
2023-04-17T01:59:09.995Z,25.02
2023-04-17T02:01:37.124Z,24.27
2023-04-17T02:04:04.218Z,26.58
2023-04-17T02:06:32.176Z,26.00
2023-04-17T02:08:59.625Z,25.45
2023-04-17T02:11:26.526Z,26.05
2023-04-17T02:13:53.547Z,26.73
2023-04-17T02:16:21.917Z,26.40
2023-04-17T02:18:50.131Z,25.77
2023-04-17T02:21:16.829Z,27.05
2023-04-17T02:23:43.915Z,25.75
2023-04-17T02:26:10.668Z,24.52
2023-04-17T02:28:37.393Z,25.65
2023-04-17T02:31:08.808Z,26.73
2023-04-17T02:33:39.385Z,26.20
2023-04-17T02:36:09.376Z,26.63
2023-04-17T02:38:37.850Z,25.35
2023-04-17T02:41:05.527Z,25.70
2023-04-17T02:43:32.245Z,25.38
2023-04-17T02:45:58.984Z,24.60
2023-04-17T02:48:25.905Z,26.48
2023-04-17T02:50:52.636Z,26.30
2023-04-17T02:53:19.308Z,24.77
2023-04-17T02:55:46.054Z,26.63
2023-04-17T02:58:13.534Z,25.25
2023-04-17T03:00:40.937Z,25.85
2023-04-17T03:03:08.358Z,24.25
2023-04-17T03:05:36.076Z,25.58
2023-04-17T03:08:02.817Z,24.75
2023-04-17T03:10:29.559Z,21.30
2023-04-17T03:12:56.162Z,17.38
2023-04-17T03:15:22.942Z,16.77
2023-04-17T03:17:49.685Z,17.20
2023-04-17T03:20:16.496Z,16.38
2023-04-17T03:22:43.134Z,16.15
2023-04-17T03:25:11.254Z,16.73
2023-04-17T03:27:38.844Z,15.75
2023-04-17T03:30:06.463Z,15.98
2023-04-17T03:32:33.354Z,16.27
2023-04-17T03:35:00.262Z,14.88
2023-04-17T03:37:26.925Z,17.23
2023-04-17T03:39:53.689Z,15.65
2023-04-17T03:42:20.364Z,15.52
2023-04-17T03:44:46.929Z,14.88
2023-04-17T03:47:13.655Z,16.50
2023-04-17T03:49:40.416Z,15.65
2023-04-17T03:52:07.171Z,16.60
2023-04-17T03:54:35.899Z,17.02
2023-04-17T03:57:03.539Z,16.30
2023-04-17T03:59:33.674Z,16.30
2023-04-17T04:02:00.716Z,17.35
2023-04-17T04:04:27.724Z,16.88
2023-04-17T04:06:58.030Z,18.20
2023-04-17T04:09:27.616Z,18.50
2023-04-17T04:11:54.375Z,18.90
2023-04-17T04:14:21.090Z,20.08
2023-04-17T04:16:47.686Z,19.15
2023-04-17T04:19:14.598Z,20.13
2023-04-17T04:21:42.456Z,19.58
2023-04-17T04:24:10.156Z,20.73
2023-04-17T04:26:37.971Z,21.98
2023-04-17T04:29:04.748Z,20.85
2023-04-17T04:31:31.989Z,21.73
2023-04-17T04:33:59.480Z,21.52
2023-04-17T04:36:30.006Z,22.65
2023-04-17T04:39:00.931Z,21.20
2023-04-17T04:41:30.190Z,22.55
2023-04-17T04:43:56.901Z,22.00
2023-04-17T04:46:23.569Z,21.45
2023-04-17T04:48:50.289Z,22.83
2023-04-17T04:51:19.034Z,22.40
2023-04-17T04:53:46.110Z,22.23
2023-04-17T04:56:12.812Z,22.55
2023-04-17T04:58:39.478Z,22.42
2023-04-17T05:01:06.999Z,22.48
2023-04-17T05:03:34.060Z,22.05
2023-04-17T05:06:00.895Z,20.65
2023-04-17T05:08:27.573Z,22.55
2023-04-17T05:10:54.297Z,21.55
2023-04-17T05:13:21.130Z,21.17
2023-04-17T05:15:47.847Z,20.85
2023-04-17T05:18:14.503Z,20.83
2023-04-17T05:20:41.303Z,21.98
2023-04-17T05:23:07.983Z,21.02
2023-04-17T05:25:34.723Z,21.73
2023-04-17T05:28:01.462Z,21.90
2023-04-17T05:30:28.204Z,21.45
2023-04-17T05:32:54.888Z,21.85
2023-04-17T05:35:21.715Z,20.92
2023-04-17T05:37:48.456Z,20.92
2023-04-17T05:40:15.521Z,22.15
2023-04-17T05:42:42.528Z,21.23
2023-04-17T05:45:13.535Z,21.20
2023-04-17T05:47:40.459Z,22.13
2023-04-17T05:50:08.249Z,21.48
2023-04-17T05:52:36.489Z,20.50
2023-04-17T05:55:04.943Z,21.48
2023-04-17T05:57:31.591Z,21.98
2023-04-17T05:59:58.219Z,23.27
2023-04-17T06:02:25.141Z,22.70
2023-04-17T06:04:52.143Z,22.35
2023-04-17T06:07:19.681Z,22.73
2023-04-17T06:09:46.385Z,23.00
2023-04-17T06:12:16.206Z,21.98
2023-04-17T06:14:43.605Z,23.38
2023-04-17T06:17:10.685Z,24.23
2023-04-17T06:19:37.485Z,24.52
2023-04-17T06:22:04.156Z,23.48
2023-04-17T06:24:30.898Z,22.55
2023-04-17T06:26:58.025Z,22.15
2023-04-17T06:29:24.696Z,23.98
2023-04-17T06:31:51.466Z,23.33
2023-04-17T06:34:18.116Z,23.25
2023-04-17T06:36:44.802Z,23.40
2023-04-17T06:39:11.648Z,24.65
2023-04-17T06:41:38.366Z,22.50
2023-04-17T06:44:05.352Z,23.17
2023-04-17T06:46:32.216Z,23.48
2023-04-17T06:48:59.692Z,22.83
2023-04-17T06:51:27.721Z,23.05
2023-04-17T06:53:54.360Z,23.30
2023-04-17T06:56:21.133Z,22.08
2023-04-17T06:58:47.756Z,21.63
2023-04-17T07:01:14.953Z,22.13
2023-04-17T07:03:42.490Z,21.35
2023-04-17T07:06:09.672Z,20.75
2023-04-17T07:08:36.594Z,21.00
2023-04-17T07:11:03.290Z,21.45
2023-04-17T07:13:33.221Z,20.65
2023-04-17T07:16:01.481Z,20.75
2023-04-17T07:18:29.791Z,21.25
2023-04-17T07:20:56.949Z,19.58
2023-04-17T07:23:23.792Z,20.67
2023-04-17T07:25:50.706Z,19.90
2023-04-17T07:28:18.006Z,18.38
2023-04-17T07:30:44.769Z,19.52
2023-04-17T07:33:11.496Z,19.15
2023-04-17T07:35:38.342Z,18.25
2023-04-17T07:38:05.130Z,18.67
2023-04-17T07:40:32.134Z,18.95
2023-04-17T07:42:58.874Z,17.75
2023-04-17T07:45:29.786Z,18.15
2023-04-17T07:47:56.471Z,18.20
2023-04-17T07:50:23.921Z,18.02
2023-04-17T07:52:50.938Z,17.00
2023-04-17T07:55:17.668Z,17.83
2023-04-17T07:57:46.667Z,16.98
2023-04-17T08:00:14.844Z,16.42
2023-04-17T08:02:44.733Z,15.48
2023-04-17T08:05:11.741Z,14.15
2023-04-17T08:07:38.671Z,13.43
2023-04-17T08:10:06.272Z,12.85
2023-04-17T08:12:33.244Z,13.63
2023-04-17T08:14:59.881Z,13.40
2023-04-17T08:17:30.159Z,14.27
2023-04-17T08:20:02.199Z,15.25
2023-04-17T08:22:29.218Z,15.20
2023-04-17T08:24:58.827Z,14.65
2023-04-17T08:27:25.868Z,15.05
2023-04-17T08:29:53.776Z,15.23
2023-04-17T08:32:21.493Z,15.30
2023-04-17T08:34:48.328Z,15.10
2023-04-17T08:37:15.192Z,15.50
2023-04-17T08:39:41.932Z,14.40
2023-04-17T08:42:17.760Z,13.88
2023-04-17T08:44:45.811Z,13.60
2023-04-17T08:47:13.215Z,14.75
2023-04-17T08:49:43.652Z,13.45
2023-04-17T08:52:11.053Z,12.70
2023-04-17T08:54:39.002Z,12.80
2023-04-17T08:57:06.095Z,13.48
2023-04-17T08:59:33.128Z,13.63
2023-04-17T09:02:09.573Z,11.88
2023-04-17T09:04:41.971Z,12.95
2023-04-17T09:07:11.244Z,13.57
2023-04-17T09:09:54.193Z,14.00
2023-04-17T09:12:22.373Z,14.38
2023-04-17T09:14:49.215Z,14.27
2023-04-17T09:17:17.504Z,13.57
2023-04-17T09:20:07.699Z,12.30
2023-04-17T09:22:36.389Z,13.38
2023-04-17T09:25:03.743Z,12.32
2023-04-17T09:27:30.473Z,12.02
2023-04-17T09:30:01.884Z,12.50
2023-04-17T09:32:30.720Z,11.40
2023-04-17T09:35:01.932Z,12.10
2023-04-17T09:37:50.682Z,11.68
2023-04-17T09:40:22.322Z,11.73
2023-04-17T09:43:00.380Z,11.27
2023-04-17T09:45:35.981Z,10.98
2023-04-17T09:48:12.939Z,11.20
2023-04-17T09:50:40.454Z,8.45
2023-04-17T09:53:07.953Z,10.18
2023-04-17T09:55:36.710Z,9.75
2023-04-17T09:58:05.160Z,9.32
2023-04-17T10:00:31.944Z,9.20
2023-04-17T10:02:59.518Z,9.55
2023-04-17T10:05:30.318Z,8.43
2023-04-17T10:07:57.540Z,8.20
2023-04-17T10:10:31.361Z,8.20
2023-04-17T10:13:00.672Z,7.88
2023-04-17T10:15:27.862Z,8.45
2023-04-17T10:17:56.665Z,7.93
2023-04-17T10:20:23.689Z,7.72
2023-04-17T10:22:54.818Z,7.22
2023-04-17T10:25:28.947Z,7.68
2023-04-17T10:28:02.597Z,7.68
2023-04-17T10:30:54.937Z,6.88
2023-04-17T10:33:25.008Z,7.20
2023-04-17T10:35:52.129Z,7.40
2023-04-17T10:38:35.482Z,6.63
2023-04-17T10:41:04.258Z,5.60
2023-04-17T10:43:31.499Z,6.60
2023-04-17T10:46:02.888Z,5.93
2023-04-17T10:48:36.711Z,6.05
2023-04-17T10:51:21.765Z,5.63
2023-04-17T10:53:49.760Z,5.43
2023-04-17T10:56:24.425Z,6.40
2023-04-17T10:58:57.912Z,5.78
2023-04-17T11:01:49.531Z,5.60
2023-04-17T11:04:23.879Z,4.80
2023-04-17T11:06:52.826Z,4.18
2023-04-17T11:09:24.767Z,4.20
2023-04-17T11:11:51.672Z,4.43
2023-04-17T11:14:21.236Z,4.55
2023-04-17T11:16:49.901Z,4.90
2023-04-17T11:19:21.445Z,4.95
2023-04-17T11:21:49.636Z,4.97
2023-04-17T11:24:27.762Z,6.10
2023-04-17T11:26:56.753Z,7.47
2023-04-17T11:29:24.308Z,7.20
2023-04-17T11:31:52.930Z,6.82
2023-04-17T11:34:19.967Z,7.28
2023-04-17T11:36:50.897Z,6.85
2023-04-17T11:39:18.778Z,6.57
2023-04-17T11:41:46.577Z,6.50
2023-04-17T11:44:14.097Z,6.32
2023-04-17T11:46:41.052Z,5.57
2023-04-17T11:49:08.244Z,6.63
2023-04-17T11:51:35.521Z,6.38
2023-04-17T11:54:02.192Z,6.82
2023-04-17T11:56:30.073Z,6.38
2023-04-17T11:58:58.296Z,6.15
2023-04-17T12:01:28.491Z,6.15
2023-04-17T12:03:57.039Z,6.15
2023-04-17T12:06:24.895Z,6.90
2023-04-17T12:08:54.041Z,7.07
2023-04-17T12:11:32.754Z,7.10
2023-04-17T12:14:00.628Z,6.95
2023-04-17T12:16:29.285Z,6.78
2023-04-17T12:18:56.887Z,7.82
2023-04-17T12:21:24.210Z,8.00
2023-04-17T12:23:51.233Z,7.38
2023-04-17T12:26:17.966Z,6.30
2023-04-17T12:28:45.003Z,6.75
2023-04-17T12:31:11.804Z,6.15
2023-04-17T12:33:38.630Z,6.57
2023-04-17T12:36:06.960Z,5.90
2023-04-17T12:38:33.875Z,5.72
2023-04-17T12:41:00.697Z,5.95
2023-04-17T12:43:27.432Z,5.82
2023-04-17T12:45:54.128Z,5.80
2023-04-17T12:48:21.161Z,6.22
2023-04-17T12:50:47.909Z,6.10
2023-04-17T12:53:15.018Z,6.00
2023-04-17T12:55:44.072Z,5.38
2023-04-17T12:58:13.004Z,5.88
2023-04-17T13:00:43.952Z,6.32
2023-04-17T13:03:12.253Z,6.90
2023-04-17T13:05:39.697Z,7.30
2023-04-17T13:08:06.500Z,7.00
2023-04-17T13:10:34.412Z,6.53
2023-04-17T13:13:02.460Z,6.55
2023-04-17T13:15:29.179Z,6.30
2023-04-17T13:17:56.249Z,5.38
2023-04-17T13:20:23.316Z,5.93
2023-04-17T13:22:50.063Z,5.70
2023-04-17T13:25:17.011Z,5.57
2023-04-17T13:27:43.928Z,4.82
2023-04-17T13:30:11.086Z,4.88
2023-04-17T13:32:39.590Z,4.75
2023-04-17T13:35:08.994Z,5.95
2023-04-17T13:37:35.642Z,5.55
2023-04-17T13:40:05.417Z,6.05
2023-04-17T13:42:32.492Z,5.78
2023-04-17T13:44:59.325Z,5.70
2023-04-17T13:47:27.441Z,6.15
2023-04-17T13:49:54.292Z,5.72
2023-04-17T13:52:21.042Z,4.43
2023-04-17T13:54:48.637Z,4.75
2023-04-17T13:57:18.615Z,4.43
2023-04-17T13:59:45.608Z,4.85
2023-04-17T14:02:12.410Z,4.55
2023-04-17T14:04:39.373Z,4.25
2023-04-17T14:07:06.386Z,4.80
2023-04-17T14:09:33.293Z,5.78
2023-04-17T14:12:00.298Z,5.15
2023-04-17T14:14:29.096Z,4.90
2023-04-17T14:16:56.442Z,5.75
2023-04-17T14:19:23.874Z,5.25
2023-04-17T14:21:50.864Z,4.53
2023-04-17T14:24:17.885Z,4.43
2023-04-17T14:26:44.859Z,5.05
2023-04-17T14:29:14.321Z,4.85
2023-04-17T14:31:41.502Z,4.50
2023-04-17T14:34:08.512Z,4.47
2023-04-17T14:36:35.966Z,3.85
2023-04-17T14:39:02.803Z,3.58
2023-04-17T14:41:34.141Z,4.68
2023-04-17T14:44:01.192Z,3.65
2023-04-17T14:46:28.341Z,3.70
2023-04-17T14:48:58.818Z,4.18
2023-04-17T14:51:27.255Z,3.40
2023-04-17T14:53:54.369Z,4.40
2023-04-17T14:56:22.051Z,4.47
2023-04-17T14:58:49.328Z,4.63
2023-04-17T15:01:16.228Z,4.45
2023-04-17T15:03:46.814Z,4.32
2023-04-17T15:06:15.554Z,3.75
2023-04-17T15:08:42.788Z,3.90
2023-04-17T15:11:09.666Z,3.80
2023-04-17T15:13:36.665Z,4.50
2023-04-17T15:16:03.958Z,3.63
2023-04-17T15:18:31.128Z,4.28
2023-04-17T15:20:58.281Z,3.83
2023-04-17T15:23:26.894Z,3.97
2023-04-17T15:25:55.766Z,3.70
2023-04-17T15:28:22.835Z,4.55
2023-04-17T15:30:52.758Z,4.63
2023-04-17T15:33:20.429Z,5.28
2023-04-17T15:35:47.607Z,4.60
2023-04-17T15:38:14.645Z,4.65
2023-04-17T15:40:41.728Z,4.90
2023-04-17T15:43:10.802Z,4.70
2023-04-17T15:45:37.850Z,4.75
2023-04-17T15:48:05.172Z,4.68
2023-04-17T15:50:32.238Z,4.82
2023-04-17T15:52:59.448Z,5.65
2023-04-17T15:55:26.383Z,4.97
2023-04-17T15:57:53.511Z,5.10
2023-04-17T16:00:20.979Z,5.85
2023-04-17T16:02:49.303Z,5.38
2023-04-17T16:05:16.771Z,5.25
2023-04-17T16:07:44.180Z,5.85
2023-04-17T16:10:14.803Z,4.63
2023-04-17T16:12:46.307Z,5.18
2023-04-17T16:15:17.781Z,5.10
2023-04-17T16:17:45.666Z,5.85
2023-04-17T16:20:13.370Z,5.60
2023-04-17T16:22:40.768Z,5.25
2023-04-17T16:25:12.364Z,5.80
2023-04-17T16:27:40.481Z,5.63
2023-04-17T16:30:08.760Z,5.25
2023-04-17T16:32:35.922Z,5.43
2023-04-17T16:35:03.158Z,6.45
2023-04-17T16:37:30.198Z,5.43
2023-04-17T16:39:57.278Z,5.72
2023-04-17T16:42:24.546Z,5.47
2023-04-17T16:44:52.753Z,5.40
2023-04-17T16:47:19.986Z,5.90
2023-04-17T16:49:50.213Z,5.70
2023-04-17T16:52:17.904Z,5.68
2023-04-17T16:54:44.924Z,5.40
2023-04-17T16:57:11.908Z,4.80
2023-04-17T16:59:39.019Z,5.82
2023-04-17T17:02:06.142Z,5.28
2023-04-17T17:04:33.383Z,6.18
2023-04-17T17:07:00.668Z,5.40
2023-04-17T17:09:28.163Z,5.60
2023-04-17T17:11:55.358Z,4.60
2023-04-17T17:14:22.461Z,5.65
2023-04-17T17:16:49.818Z,6.35
2023-04-17T17:19:17.108Z,5.72
2023-04-17T17:21:44.101Z,5.50
2023-04-17T17:24:11.396Z,5.22
2023-04-17T17:26:38.584Z,6.00
2023-04-17T17:29:08.240Z,6.18
2023-04-17T17:31:35.634Z,5.25
2023-04-17T17:34:17.199Z,5.13
2023-04-17T17:36:50.135Z,5.63
2023-04-17T17:39:17.348Z,6.28
2023-04-17T17:41:47.215Z,5.35
2023-04-17T17:44:15.603Z,5.82
2023-04-17T17:46:43.045Z,5.82
2023-04-17T17:49:10.511Z,5.78
2023-04-17T17:51:37.693Z,5.93
2023-04-17T17:54:06.138Z,6.30
2023-04-17T17:56:35.218Z,6.40
2023-04-17T17:59:02.703Z,5.95
2023-04-17T18:01:32.613Z,5.95
2023-04-17T18:04:00.857Z,6.07
2023-04-17T18:06:32.128Z,5.65
2023-04-17T18:09:00.873Z,5.97
2023-04-17T18:11:30.023Z,5.85
2023-04-17T18:13:58.316Z,5.32
2023-04-17T18:16:25.937Z,6.20
2023-04-17T18:18:56.219Z,5.68
2023-04-17T18:21:23.887Z,6.38
2023-04-17T18:23:55.770Z,6.45
2023-04-17T18:26:25.200Z,5.43
2023-04-17T18:28:55.065Z,5.57
2023-04-17T18:31:24.815Z,5.57
2023-04-17T18:36:33.703Z,5.78
2023-04-17T18:39:02.167Z,6.03
2023-04-17T18:46:57.231Z,6.07
2023-04-17T18:49:25.605Z,6.35
2023-04-17T18:51:55.579Z,6.80
2023-04-17T18:54:31.207Z,6.55
2023-04-17T18:57:00.326Z,6.53
2023-04-17T18:59:32.416Z,6.30
2023-04-17T19:02:03.625Z,6.88
2023-04-17T19:04:31.748Z,6.75
2023-04-17T19:06:59.565Z,6.43
2023-04-17T19:09:27.209Z,6.80
2023-04-17T19:11:59.324Z,5.63
2023-04-17T19:14:26.646Z,6.07
2023-04-17T19:16:55.313Z,6.65
2023-04-17T19:19:24.571Z,6.13
2023-04-17T19:24:35.245Z,6.00
2023-04-17T19:27:03.561Z,6.88
2023-04-17T19:29:32.448Z,6.28
2023-04-17T19:32:01.528Z,6.07
2023-04-17T19:34:29.026Z,6.68
2023-04-17T19:36:57.948Z,6.38
2023-04-17T19:39:28.495Z,6.32
2023-04-17T19:41:56.972Z,6.53
2023-04-17T19:44:28.976Z,6.53
2023-04-17T19:46:57.140Z,5.95
2023-04-17T20:07:02.103Z,5.82
2023-04-17T20:17:43.145Z,6.20
2023-04-17T20:20:17.618Z,6.63
2023-04-17T21:22:27.610Z,8.05
